createdAt,value
2023-01-17T00:02:21.938Z,98145.75
2023-01-17T00:05:07.431Z,98147.56
2023-01-17T00:07:52.786Z,98162.81
2023-01-17T00:10:24.741Z,98155.78
2023-01-17T00:12:55.450Z,98163.81
2023-01-17T00:15:24.576Z,98165.66
2023-01-17T00:17:53.657Z,98172.03
2023-01-17T00:20:40.986Z,98176.53
2023-01-17T00:23:27.424Z,98181.03
2023-01-17T00:26:06.261Z,98175.69
2023-01-17T00:28:35.489Z,98179.38
2023-01-17T00:31:02.764Z,98191.94
2023-01-17T00:33:29.860Z,98206.16
2023-01-17T00:35:57.942Z,98206.34
2023-01-17T00:38:26.573Z,98209.00
2023-01-17T00:40:53.963Z,98214.50
2023-01-17T00:43:41.919Z,98219.88
2023-01-17T00:46:27.847Z,98222.56
2023-01-17T00:49:13.113Z,98230.59
2023-01-17T00:51:58.887Z,98228.09
2023-01-17T00:54:44.222Z,98235.28
2023-01-17T00:57:29.576Z,98240.63
2023-01-17T01:00:16.581Z,98233.44
2023-01-17T01:03:01.888Z,98253.19
2023-01-17T01:05:47.751Z,98260.41
2023-01-17T01:08:38.651Z,98264.06
2023-01-17T01:11:26.099Z,98269.41
2023-01-17T01:14:11.657Z,98282.81
2023-01-17T01:16:58.820Z,98286.50
2023-01-17T01:19:45.010Z,98291.16
2023-01-17T01:22:30.362Z,98293.84
2023-01-17T01:25:15.701Z,98302.88
2023-01-17T01:28:00.997Z,98307.41
2023-01-17T01:30:46.347Z,98311.91
2023-01-17T01:33:21.393Z,98309.41
2023-01-17T01:35:51.003Z,98341.56
2023-01-17T01:38:20.127Z,98335.31
2023-01-17T01:40:49.816Z,98342.69
2023-01-17T01:43:20.732Z,98346.22
2023-01-17T01:45:54.041Z,98358.78
2023-01-17T01:48:36.253Z,98366.63
2023-01-17T01:51:08.623Z,98380.03
2023-01-17T01:53:39.982Z,98380.03
2023-01-17T01:56:12.475Z,98374.84
2023-01-17T01:58:42.944Z,98375.66
2023-01-17T02:01:11.691Z,98381.03
2023-01-17T02:03:43.067Z,98377.69
2023-01-17T02:06:28.402Z,98377.81
2023-01-17T02:08:58.464Z,98373.47
2023-01-17T02:11:27.570Z,98378.97
2023-01-17T02:13:55.664Z,98394.19
2023-01-17T02:16:42.934Z,98401.41
2023-01-17T02:19:30.968Z,98398.91
2023-01-17T02:22:14.831Z,98413.28
2023-01-17T02:25:09.919Z,98419.63
2023-01-17T02:27:51.798Z,98425.97
2023-01-17T02:30:34.194Z,98424.31
2023-01-17T02:33:07.332Z,98434.00
2023-01-17T02:35:44.094Z,98431.50
2023-01-17T02:38:26.133Z,98431.63
2023-01-17T02:40:58.873Z,98432.66
2023-01-17T02:43:28.030Z,98433.66
2023-01-17T02:45:59.753Z,98438.16
2023-01-17T02:48:32.223Z,98443.66
2023-01-17T02:51:28.101Z,98441.81
2023-01-17T02:54:12.004Z,98458.06
2023-01-17T02:56:49.833Z,98470.59
2023-01-17T02:59:34.962Z,98475.13
2023-01-17T03:02:15.777Z,98466.38
2023-01-17T03:04:50.771Z,98469.91
2023-01-17T03:07:22.614Z,98471.75
2023-01-17T03:09:54.531Z,98471.91
2023-01-17T03:12:22.929Z,98477.25
2023-01-17T03:14:50.902Z,98485.28
2023-01-17T03:17:24.690Z,98490.75
2023-01-17T03:19:52.803Z,98487.25
2023-01-17T03:22:20.722Z,98485.56
2023-01-17T03:24:49.106Z,98482.06
2023-01-17T03:27:17.103Z,98471.34
2023-01-17T03:29:45.095Z,98461.63
2023-01-17T03:32:13.089Z,98465.28
2023-01-17T03:34:42.474Z,98481.34
2023-01-17T03:37:10.788Z,98486.72
2023-01-17T03:39:38.758Z,98490.38
2023-01-17T03:42:06.850Z,98498.41
2023-01-17T03:44:35.265Z,98490.56
2023-01-17T03:47:03.328Z,98496.03
2023-01-17T03:49:31.382Z,98496.03
2023-01-17T03:52:00.720Z,98504.06
2023-01-17T03:54:28.651Z,98506.75
2023-01-17T03:56:56.649Z,98516.78
2023-01-17T03:59:26.948Z,98523.81
2023-01-17T04:01:55.259Z,98529.47
2023-01-17T04:04:23.745Z,98528.63
2023-01-17T04:06:51.980Z,98537.66
2023-01-17T04:09:21.345Z,98527.09
2023-01-17T04:11:50.914Z,98539.63
2023-01-17T04:14:19.086Z,98535.97
2023-01-17T04:16:47.177Z,98531.59
2023-01-17T04:19:15.230Z,98538.78
2023-01-17T04:21:43.145Z,98541.47
2023-01-17T04:24:11.194Z,98531.94
2023-01-17T04:26:40.592Z,98530.09
2023-01-17T04:29:11.613Z,98531.94
2023-01-17T04:31:39.646Z,98531.06
2023-01-17T04:34:07.618Z,98530.22
2023-01-17T04:36:38.075Z,98540.09
2023-01-17T04:39:06.317Z,98538.41
2023-01-17T04:41:34.614Z,98542.09
2023-01-17T04:44:04.381Z,98542.09
2023-01-17T04:46:32.584Z,98536.03
2023-01-17T04:49:00.535Z,98540.38
2023-01-17T04:51:28.505Z,98541.56
2023-01-17T04:53:56.472Z,98542.41
2023-01-17T04:56:24.506Z,98538.03
2023-01-17T04:58:52.423Z,98545.22
2023-01-17T05:01:21.902Z,98532.81
2023-01-17T05:03:49.987Z,98539.00
2023-01-17T05:06:17.943Z,98540.00
2023-01-17T05:08:46.056Z,98543.69
2023-01-17T05:11:14.055Z,98543.69
2023-01-17T05:13:42.003Z,98550.03
2023-01-17T05:16:10.116Z,98558.06
2023-01-17T05:18:39.501Z,98564.41
2023-01-17T05:21:07.779Z,98566.22
2023-01-17T05:23:35.776Z,98562.72
2023-01-17T05:26:03.784Z,98561.03
2023-01-17T05:28:31.758Z,98570.75
2023-01-17T05:30:59.923Z,98572.72
2023-01-17T05:33:28.150Z,98563.84
2023-01-17T05:35:57.500Z,98565.69
2023-01-17T05:38:25.699Z,98569.38
2023-01-17T05:40:54.015Z,98578.41
2023-01-17T05:43:22.871Z,98573.16
2023-01-17T05:45:50.838Z,98570.50
2023-01-17T05:48:20.668Z,98585.72
2023-01-17T05:50:52.302Z,98589.22
2023-01-17T05:53:21.742Z,98593.59
2023-01-17T05:55:49.786Z,98584.72
2023-01-17T05:58:19.969Z,98594.44
2023-01-17T06:00:48.716Z,98590.06
2023-01-17T06:03:16.943Z,98598.09
2023-01-17T06:05:45.173Z,98604.44
2023-01-17T06:08:13.156Z,98604.44
2023-01-17T06:10:42.700Z,98608.78
2023-01-17T06:13:14.329Z,98606.97
2023-01-17T06:15:44.712Z,98614.31
2023-01-17T06:18:14.061Z,98613.31
2023-01-17T06:20:45.595Z,98607.94
2023-01-17T06:23:15.059Z,98603.91
2023-01-17T06:25:48.675Z,98605.44
2023-01-17T06:28:18.469Z,98607.94
2023-01-17T06:30:46.992Z,98613.47
2023-01-17T06:33:15.718Z,98607.41
2023-01-17T06:35:49.117Z,98619.94
2023-01-17T06:38:17.391Z,98617.44
2023-01-17T06:40:45.364Z,98619.41
2023-01-17T06:43:14.756Z,98619.41
2023-01-17T06:45:42.764Z,98623.06
2023-01-17T06:48:13.198Z,98631.94
2023-01-17T06:50:41.238Z,98632.09
2023-01-17T06:53:09.187Z,98629.41
2023-01-17T06:55:41.357Z,98631.25
2023-01-17T06:58:09.826Z,98638.44
2023-01-17T07:00:41.678Z,98638.56
2023-01-17T07:03:18.483Z,98635.06
2023-01-17T07:05:47.028Z,98637.75
2023-01-17T07:08:16.428Z,98636.06
2023-01-17T07:10:45.667Z,98630.72
2023-01-17T07:13:14.225Z,98627.19
2023-01-17T07:15:43.680Z,98631.00
2023-01-17T07:18:11.701Z,98639.03
2023-01-17T07:20:39.707Z,98639.03
2023-01-17T07:23:07.732Z,98634.69
2023-01-17T07:25:35.763Z,98632.97
2023-01-17T07:28:03.731Z,98637.34
2023-01-17T07:30:31.858Z,98644.38
2023-01-17T07:33:01.483Z,98644.53
2023-01-17T07:35:29.542Z,98650.00
2023-01-17T07:37:57.545Z,98659.72
2023-01-17T07:40:25.740Z,98654.34
2023-01-17T07:42:53.885Z,98657.19
2023-01-17T07:45:21.970Z,98650.16
2023-01-17T07:47:50.153Z,98651.16
2023-01-17T07:50:19.654Z,98651.28
2023-01-17T07:52:50.388Z,98647.63
2023-01-17T07:55:18.588Z,98648.50
2023-01-17T07:57:50.194Z,98651.16
2023-01-17T08:00:19.518Z,98652.97
2023-01-17T08:02:47.526Z,98658.31
2023-01-17T08:05:15.697Z,98655.81
2023-01-17T08:07:47.032Z,98656.81
2023-01-17T08:10:17.938Z,98654.97
2023-01-17T08:12:47.187Z,98654.97
2023-01-17T08:15:15.372Z,98652.28
2023-01-17T08:17:47.167Z,98656.81
2023-01-17T08:20:15.853Z,98655.25
2023-01-17T08:22:44.069Z,98649.06
2023-01-17T08:25:13.657Z,98655.25
2023-01-17T08:27:41.730Z,98652.56
2023-01-17T08:30:10.976Z,98665.13
2023-01-17T08:32:40.774Z,98668.78
2023-01-17T08:35:09.498Z,98673.97
2023-01-17T08:37:39.032Z,98668.78
2023-01-17T08:40:08.814Z,98669.63
2023-01-17T08:42:40.323Z,98676.66
2023-01-17T08:45:10.177Z,98668.78
2023-01-17T08:47:39.156Z,98667.06
2023-01-17T08:50:09.980Z,98672.28
2023-01-17T08:52:38.155Z,98674.13
2023-01-17T08:55:10.108Z,98661.72
2023-01-17T08:57:39.580Z,98673.28
2023-01-17T09:00:08.860Z,98684.00
2023-01-17T09:02:37.113Z,98677.66
2023-01-17T09:05:05.489Z,98678.47
2023-01-17T09:07:33.541Z,98688.19
2023-01-17T09:10:04.166Z,98682.00
2023-01-17T09:12:34.406Z,98690.03
2023-01-17T09:15:05.148Z,98694.69
2023-01-17T09:17:33.222Z,98697.38
2023-01-17T09:20:01.243Z,98704.38
2023-01-17T09:22:31.898Z,98702.72
2023-01-17T09:25:00.068Z,98698.19
2023-01-17T09:27:28.113Z,98707.06
2023-01-17T09:29:59.115Z,98706.22
2023-01-17T09:32:28.540Z,98712.41
2023-01-17T09:35:01.012Z,98714.94
2023-01-17T09:37:30.096Z,98715.75
2023-01-17T09:39:58.029Z,98721.81
2023-01-17T09:42:33.190Z,98737.72
2023-01-17T09:45:01.378Z,98727.03
2023-01-17T09:47:37.313Z,98737.72
2023-01-17T09:50:24.669Z,98735.88
2023-01-17T09:53:00.801Z,98736.75
2023-01-17T09:55:33.054Z,98742.94
2023-01-17T09:58:02.330Z,98735.88
2023-01-17T10:00:44.869Z,98748.97
2023-01-17T10:03:27.066Z,98748.13
2023-01-17T10:06:04.144Z,98742.78
2023-01-17T10:08:48.827Z,98748.97
2023-01-17T10:11:33.723Z,98745.31
2023-01-17T10:14:16.904Z,98745.31
2023-01-17T10:16:53.584Z,98747.97
2023-01-17T10:19:48.073Z,98750.53
2023-01-17T10:22:42.037Z,98750.66
2023-01-17T10:25:22.363Z,98751.38
2023-01-17T10:27:59.048Z,98747.69
2023-01-17T10:30:35.147Z,98745.00
2023-01-17T10:33:13.486Z,98741.38
2023-01-17T10:35:52.691Z,98741.38
2023-01-17T10:38:24.380Z,98736.16
2023-01-17T10:40:57.950Z,98737.84
2023-01-17T10:43:31.854Z,98742.34
2023-01-17T10:45:59.952Z,98739.66
2023-01-17T10:48:37.545Z,98730.97
2023-01-17T10:51:17.319Z,98736.31
2023-01-17T10:54:03.118Z,98736.44
2023-01-17T10:56:31.753Z,98732.94
2023-01-17T10:59:17.525Z,98740.09
2023-01-17T11:01:46.039Z,98733.22
2023-01-17T11:04:19.935Z,98738.56
2023-01-17T11:07:09.721Z,98728.84
2023-01-17T11:09:39.797Z,98740.25
2023-01-17T11:12:19.811Z,98734.06
2023-01-17T11:15:06.612Z,98730.41
2023-01-17T11:17:37.387Z,98727.84
2023-01-17T11:20:17.110Z,98733.22
2023-01-17T11:23:02.383Z,98733.22
2023-01-17T11:25:34.020Z,98738.56
2023-01-17T11:28:07.991Z,98736.88
2023-01-17T11:30:36.104Z,98735.03
2023-01-17T11:33:07.006Z,98734.34
2023-01-17T11:35:37.149Z,98728.16
2023-01-17T11:38:14.917Z,98728.00
2023-01-17T11:40:47.059Z,98726.47
2023-01-17T11:43:25.803Z,98725.50
2023-01-17T11:46:14.814Z,98727.31
2023-01-17T11:48:49.004Z,98727.31
2023-01-17T11:51:24.430Z,98729.84
2023-01-17T11:53:55.731Z,98727.03
2023-01-17T11:56:33.157Z,98715.47
2023-01-17T11:59:33.494Z,98716.47
2023-01-17T12:02:34.708Z,98708.47
2023-01-17T12:05:15.436Z,98705.06
2023-01-17T12:07:51.458Z,98708.75
2023-01-17T12:10:26.652Z,98706.06
2023-01-17T12:13:23.510Z,98712.25
2023-01-17T12:16:31.752Z,98705.91
2023-01-17T12:19:09.536Z,98707.75
2023-01-17T12:21:47.829Z,98711.25
2023-01-17T12:24:51.587Z,98699.72
2023-01-17T12:27:29.644Z,98704.09
2023-01-17T12:30:12.867Z,98698.75
2023-01-17T12:32:55.591Z,98696.06
2023-01-17T12:35:29.136Z,98705.63
2023-01-17T12:38:05.495Z,98705.63
2023-01-17T12:40:40.123Z,98705.63
2023-01-17T12:43:15.761Z,98705.50
2023-01-17T12:45:45.810Z,98708.16
2023-01-17T12:48:17.039Z,98704.50
2023-01-17T12:50:52.966Z,98710.69
2023-01-17T12:53:28.520Z,98709.69
2023-01-17T12:56:02.111Z,98704.22
2023-01-17T12:58:38.341Z,98712.25
2023-01-17T13:01:13.354Z,98711.25
2023-01-17T13:03:50.005Z,98698.56
2023-01-17T13:06:29.091Z,98702.22
2023-01-17T13:09:01.611Z,98704.22
2023-01-17T13:11:38.279Z,98700.16
2023-01-17T13:14:10.778Z,98702.28
2023-01-17T13:16:43.765Z,98696.63
2023-01-17T13:19:21.476Z,98708.72
2023-01-17T13:21:51.213Z,98696.88
2023-01-17T13:24:45.458Z,98700.81
2023-01-17T13:27:34.057Z,98705.72
2023-01-17T13:30:23.816Z,98701.91
2023-01-17T13:33:21.964Z,98700.75
2023-01-17T13:36:00.696Z,98705.81
2023-01-17T13:38:40.797Z,98714.53
2023-01-17T13:41:17.991Z,98707.22
2023-01-17T13:44:08.139Z,98709.03
2023-01-17T13:47:02.688Z,98712.41
2023-01-17T13:49:56.286Z,98714.25
2023-01-17T13:52:35.731Z,98706.91
2023-01-17T13:55:07.226Z,98712.28
2023-01-17T13:57:43.711Z,98713.94
2023-01-17T14:00:51.486Z,98715.63
2023-01-17T14:04:01.016Z,98714.66
2023-01-17T14:06:35.835Z,98712.81
2023-01-17T14:09:14.276Z,98712.81
2023-01-17T14:11:54.472Z,98713.50
2023-01-17T14:15:00.569Z,98721.41
2023-01-17T14:17:55.856Z,98723.06
2023-01-17T14:20:50.329Z,98727.44
2023-01-17T14:23:33.182Z,98729.09
2023-01-17T14:26:18.119Z,98732.66
2023-01-17T14:28:46.454Z,98724.47
2023-01-17T14:31:17.856Z,98721.78
2023-01-17T14:33:45.958Z,98728.81
2023-01-17T14:36:24.999Z,98726.16
2023-01-17T14:38:57.575Z,98727.81
2023-01-17T14:41:28.124Z,98726.84
2023-01-17T14:43:57.101Z,98737.56
2023-01-17T14:46:31.101Z,98730.38
2023-01-17T14:49:05.820Z,98738.41
2023-01-17T14:51:35.522Z,98734.72
2023-01-17T14:54:18.305Z,98740.91
2023-01-17T14:56:46.792Z,98737.25
2023-01-17T14:59:17.238Z,98735.44
2023-01-17T15:02:06.019Z,98732.75
2023-01-17T15:04:39.438Z,98731.03
2023-01-17T15:07:08.805Z,98733.59
2023-01-17T15:09:39.166Z,98741.47
2023-01-17T15:12:10.680Z,98744.97
2023-01-17T15:14:43.596Z,98736.94
2023-01-17T15:17:18.252Z,98741.47
2023-01-17T15:19:49.096Z,98735.97
2023-01-17T15:22:18.683Z,98742.31
2023-01-17T15:24:51.683Z,98747.53
2023-01-17T15:27:19.989Z,98747.53
2023-01-17T15:29:48.519Z,98750.34
2023-01-17T15:32:21.757Z,98754.72
2023-01-17T15:34:51.943Z,98749.38
2023-01-17T15:37:29.673Z,98754.72
2023-01-17T15:40:08.074Z,98744.00
2023-01-17T15:42:39.766Z,98756.41
2023-01-17T15:45:13.147Z,98758.91
2023-01-17T15:47:41.254Z,98760.59
2023-01-17T15:50:27.907Z,98759.75
2023-01-17T15:52:58.361Z,98758.06
2023-01-17T15:55:32.369Z,98759.75
2023-01-17T15:58:01.193Z,98771.28
2023-01-17T16:00:37.722Z,98760.59
2023-01-17T16:03:21.586Z,98760.59
2023-01-17T16:05:50.569Z,98760.59
2023-01-17T16:08:33.159Z,98762.28
2023-01-17T16:11:06.326Z,98762.44
2023-01-17T16:13:37.164Z,98762.28
2023-01-17T16:16:19.917Z,98773.13
2023-01-17T16:18:49.385Z,98764.13
2023-01-17T16:21:23.881Z,98771.16
2023-01-17T16:23:52.621Z,98772.16
2023-01-17T16:26:22.062Z,98767.94
2023-01-17T16:28:50.533Z,98765.94
2023-01-17T16:31:21.845Z,98778.34
2023-01-17T16:33:51.409Z,98782.00
2023-01-17T16:36:21.293Z,98780.03
2023-01-17T16:38:51.790Z,98787.91
2023-01-17T16:41:21.779Z,98786.09
2023-01-17T16:43:59.472Z,98787.66
2023-01-17T16:46:28.080Z,98778.63
2023-01-17T16:48:56.465Z,98784.69
2023-01-17T16:51:24.444Z,98788.19
2023-01-17T16:53:54.825Z,98789.75
2023-01-17T16:56:24.239Z,98796.78
2023-01-17T16:58:53.327Z,98797.34
2023-01-17T17:01:22.844Z,98801.84
2023-01-17T17:03:51.158Z,98808.03
2023-01-17T17:06:19.494Z,98800.69
2023-01-17T17:08:47.692Z,98807.59
2023-01-17T17:11:18.776Z,98813.78
2023-01-17T17:13:49.854Z,98818.16
2023-01-17T17:16:19.848Z,98816.34
2023-01-17T17:18:56.952Z,98817.19
2023-01-17T17:21:26.562Z,98818.03
2023-01-17T17:23:57.000Z,98822.53
2023-01-17T17:26:28.998Z,98825.22
2023-01-17T17:28:58.813Z,98823.38
2023-01-17T17:31:27.017Z,98823.38
2023-01-17T17:33:59.126Z,98827.06
2023-01-17T17:36:27.455Z,98828.72
2023-01-17T17:38:56.255Z,98827.88
2023-01-17T17:41:26.826Z,98827.88
2023-01-17T17:43:55.375Z,98824.38
2023-01-17T17:46:29.170Z,98839.44
2023-01-17T17:48:58.092Z,98849.03
2023-01-17T17:51:27.961Z,98849.88
2023-01-17T17:53:57.104Z,98854.22
2023-01-17T17:56:25.149Z,98858.59
2023-01-17T17:58:53.331Z,98865.63
2023-01-17T18:01:22.854Z,98860.25
2023-01-17T18:03:52.566Z,98866.50
2023-01-17T18:06:21.765Z,98869.28
2023-01-17T18:08:51.819Z,98863.94
2023-01-17T18:11:22.609Z,98880.84
2023-01-17T18:13:52.112Z,98877.19
2023-01-17T18:16:22.663Z,98880.84
2023-01-17T18:18:55.053Z,98875.50
2023-01-17T18:21:25.433Z,98887.03
2023-01-17T18:23:56.753Z,98887.03
2023-01-17T18:26:26.667Z,98896.91
2023-01-17T18:28:55.585Z,98900.44
2023-01-17T18:31:25.169Z,98904.94
2023-01-17T18:33:55.283Z,98908.47
2023-01-17T18:36:24.507Z,98913.81
2023-01-17T18:38:53.288Z,98911.16
2023-01-17T18:41:23.272Z,98912.03
2023-01-17T18:43:51.945Z,98918.22
2023-01-17T18:46:22.086Z,98921.03
2023-01-17T18:48:50.271Z,98914.00
2023-01-17T18:51:21.834Z,98914.69
2023-01-17T18:53:54.029Z,98921.72
2023-01-17T18:56:24.147Z,98915.53
2023-01-17T18:58:52.409Z,98921.72
2023-01-17T19:01:22.749Z,98915.53
2023-01-17T19:03:54.531Z,98915.66
2023-01-17T19:06:27.037Z,98920.91
2023-01-17T19:08:55.564Z,98923.69
2023-01-17T19:11:24.637Z,98923.56
2023-01-17T19:13:53.475Z,98929.78
2023-01-17T19:16:24.947Z,98930.59
2023-01-17T19:18:56.356Z,98932.44
2023-01-17T19:21:28.425Z,98935.97
2023-01-17T19:23:57.638Z,98933.28
2023-01-17T19:26:27.331Z,98938.50
2023-01-17T19:28:56.909Z,98941.31
2023-01-17T19:31:27.241Z,98949.19
2023-01-17T19:33:57.779Z,98945.69
2023-01-17T19:36:30.023Z,98941.31
2023-01-17T19:39:06.268Z,98959.78
2023-01-17T19:41:36.522Z,98958.06
2023-01-17T19:44:06.676Z,98955.28
2023-01-17T19:46:37.801Z,98959.78
2023-01-17T19:49:09.369Z,98960.63
2023-01-17T19:51:41.212Z,98961.47
2023-01-17T19:54:09.204Z,98950.03
2023-01-17T19:56:39.253Z,98961.47
2023-01-17T19:59:07.293Z,98958.06
2023-01-17T20:01:35.719Z,98959.78
2023-01-17T20:04:05.309Z,98964.31
2023-01-17T20:06:35.324Z,98960.75
2023-01-17T20:09:06.457Z,98968.66
2023-01-17T20:11:35.188Z,98966.66
2023-01-17T20:14:05.445Z,98965.81
2023-01-17T20:16:33.793Z,98965.16
2023-01-17T20:19:02.905Z,98972.34
2023-01-17T20:21:32.467Z,98973.03
2023-01-17T20:24:05.382Z,98974.88
2023-01-17T20:26:36.025Z,98972.19
2023-01-17T20:29:07.376Z,98973.03
2023-01-17T20:31:38.077Z,98974.88
2023-01-17T20:34:08.102Z,98974.72
2023-01-17T20:36:36.972Z,98974.88
2023-01-17T20:39:07.787Z,98978.25
2023-01-17T20:41:37.534Z,98979.94
2023-01-17T20:44:08.590Z,98981.78
2023-01-17T20:46:41.027Z,98969.34
2023-01-17T20:49:13.456Z,98972.91
2023-01-17T20:51:41.207Z,98979.94
2023-01-17T20:54:13.764Z,98973.75
2023-01-17T20:56:42.249Z,98974.59
2023-01-17T20:59:14.964Z,98973.59
2023-01-17T21:01:44.395Z,98976.41
2023-01-17T21:04:16.688Z,98969.22
2023-01-17T21:06:45.335Z,98978.94
2023-01-17T21:09:17.262Z,98974.41
2023-01-17T21:11:45.377Z,98979.78
2023-01-17T21:14:13.291Z,98974.41
2023-01-17T21:16:41.699Z,98976.09
2023-01-17T21:19:12.023Z,98976.97
2023-01-17T21:21:40.244Z,98971.63
2023-01-17T21:24:08.634Z,98969.06
2023-01-17T21:26:40.004Z,98976.09
2023-01-17T21:29:08.224Z,98985.84
2023-01-17T21:31:40.285Z,98985.84
2023-01-17T21:34:10.210Z,98981.34
2023-01-17T21:36:40.583Z,98976.97
2023-01-17T21:39:12.293Z,98984.00
2023-01-17T21:41:46.806Z,98985.69
2023-01-17T21:44:16.443Z,98985.69
2023-01-17T21:46:44.548Z,98987.38
2023-01-17T21:49:12.982Z,98990.06
2023-01-17T21:51:59.371Z,98985.56
2023-01-17T21:54:46.793Z,98988.25
2023-01-17T21:57:35.104Z,98984.69
2023-01-17T22:00:03.981Z,98986.41
2023-01-17T22:02:31.924Z,98994.44
2023-01-17T22:04:59.922Z,98999.81
2023-01-17T22:07:29.049Z,98996.97
2023-01-17T22:09:57.812Z,98994.44
2023-01-17T22:12:27.319Z,98992.59
2023-01-17T22:14:55.264Z,98992.59
2023-01-17T22:17:23.761Z,99002.47
2023-01-17T22:19:51.758Z,98993.44
2023-01-17T22:22:19.863Z,98995.28
2023-01-17T22:24:47.897Z,98998.97
2023-01-17T22:27:15.822Z,98998.09
2023-01-17T22:29:47.798Z,99006.13
2023-01-17T22:32:15.841Z,99001.75
2023-01-17T22:34:43.810Z,98999.25
2023-01-17T22:37:11.786Z,99004.59
2023-01-17T22:39:39.978Z,99004.59
2023-01-17T22:42:08.646Z,99012.78
2023-01-17T22:44:36.628Z,99005.72
2023-01-17T22:47:06.114Z,99007.41
2023-01-17T22:49:34.062Z,99016.44
2023-01-17T22:52:02.102Z,99011.09
2023-01-17T22:54:30.041Z,99018.44
2023-01-17T22:56:58.819Z,99021.13
2023-01-17T22:59:26.804Z,99031.84
2023-01-17T23:01:54.943Z,99033.63
2023-01-17T23:04:24.348Z,99022.09
2023-01-17T23:06:53.528Z,99031.97
2023-01-17T23:09:21.626Z,99031.97
2023-01-17T23:11:52.764Z,99029.44
2023-01-17T23:14:22.114Z,99028.59
2023-01-17T23:17:09.680Z,99030.41
2023-01-17T23:19:42.898Z,99027.72
2023-01-17T23:22:22.733Z,99028.72
2023-01-17T23:24:52.613Z,99034.06
2023-01-17T23:27:40.555Z,99026.19
2023-01-17T23:30:11.925Z,99025.34
2023-01-17T23:32:40.601Z,99034.22
2023-01-17T23:35:10.214Z,99036.19
2023-01-17T23:37:55.625Z,99030.84
2023-01-17T23:40:23.720Z,99041.56
2023-01-17T23:43:09.311Z,99030.00
2023-01-17T23:45:38.395Z,99024.78
2023-01-17T23:48:09.375Z,99027.31
2023-01-17T23:50:40.615Z,99031.00
2023-01-17T23:53:08.847Z,99031.00
2023-01-17T23:55:38.565Z,99033.81
2023-01-17T23:58:07.855Z,99041.16
